sensor_id;sensor_type;location;lat;lon;timestamp;P1;durP1;ratioP1;P2;durP2;ratioP2
71048;SDS011;58704;53.358;-6.238;2022-11-20T00:01:06;11.83;;;4.17;;
71048;SDS011;58704;53.358;-6.238;2022-11-20T00:03:35;11.10;;;3.25;;
71048;SDS011;58704;53.358;-6.238;2022-11-20T00:06:04;17.13;;;3.90;;
71048;SDS011;58704;53.358;-6.238;2022-11-20T00:08:31;13.87;;;3.50;;
71048;SDS011;58704;53.358;-6.238;2022-11-20T00:10:57;15.70;;;3.33;;
71048;SDS011;58704;53.358;-6.238;2022-11-20T00:13:22;14.37;;;3.50;;
71048;SDS011;58704;53.358;-6.238;2022-11-20T00:15:56;15.80;;;3.60;;
71048;SDS011;58704;53.358;-6.238;2022-11-20T00:18:23;15.10;;;2.90;;
71048;SDS011;58704;53.358;-6.238;2022-11-20T00:20:48;14.70;;;3.53;;
71048;SDS011;58704;53.358;-6.238;2022-11-20T00:23:14;15.07;;;3.67;;
71048;SDS011;58704;53.358;-6.238;2022-11-20T00:25:39;10.83;;;3.43;;
71048;SDS011;58704;53.358;-6.238;2022-11-20T00:28:04;19.83;;;3.88;;
71048;SDS011;58704;53.358;-6.238;2022-11-20T00:30:30;17.03;;;3.37;;
71048;SDS011;58704;53.358;-6.238;2022-11-20T00:32:56;13.70;;;3.37;;
71048;SDS011;58704;53.358;-6.238;2022-11-20T00:35:22;21.13;;;4.53;;
71048;SDS011;58704;53.358;-6.238;2022-11-20T00:37:47;14.00;;;3.67;;
71048;SDS011;58704;53.358;-6.238;2022-11-20T00:40:13;13.67;;;3.40;;
71048;SDS011;58704;53.358;-6.238;2022-11-20T00:42:38;16.73;;;3.60;;
71048;SDS011;58704;53.358;-6.238;2022-11-20T00:45:04;12.70;;;3.63;;
71048;SDS011;58704;53.358;-6.238;2022-11-20T00:47:30;12.98;;;3.40;;
71048;SDS011;58704;53.358;-6.238;2022-11-20T00:49:55;14.67;;;3.40;;
71048;SDS011;58704;53.358;-6.238;2022-11-20T00:52:21;15.43;;;3.30;;
71048;SDS011;58704;53.358;-6.238;2022-11-20T00:54:46;18.43;;;3.63;;
71048;SDS011;58704;53.358;-6.238;2022-11-20T00:57:12;14.27;;;3.70;;
71048;SDS011;58704;53.358;-6.238;2022-11-20T00:59:38;17.23;;;3.35;;
71048;SDS011;58704;53.358;-6.238;2022-11-20T01:02:03;16.70;;;4.17;;
71048;SDS011;58704;53.358;-6.238;2022-11-20T01:04:31;18.02;;;3.65;;
71048;SDS011;58704;53.358;-6.238;2022-11-20T01:06:56;24.87;;;4.27;;
71048;SDS011;58704;53.358;-6.238;2022-11-20T01:09:22;18.77;;;3.90;;
71048;SDS011;58704;53.358;-6.238;2022-11-20T01:11:47;22.87;;;3.70;;
71048;SDS011;58704;53.358;-6.238;2022-11-20T01:14:14;21.40;;;3.70;;
71048;SDS011;58704;53.358;-6.238;2022-11-20T01:16:42;16.30;;;3.60;;
71048;SDS011;58704;53.358;-6.238;2022-11-20T01:19:14;17.95;;;3.33;;
71048;SDS011;58704;53.358;-6.238;2022-11-20T01:21:41;21.77;;;3.83;;
71048;SDS011;58704;53.358;-6.238;2022-11-20T01:24:09;23.80;;;3.87;;
71048;SDS011;58704;53.358;-6.238;2022-11-20T01:26:37;16.27;;;3.22;;
71048;SDS011;58704;53.358;-6.238;2022-11-20T01:29:04;22.23;;;3.63;;
71048;SDS011;58704;53.358;-6.238;2022-11-20T01:31:31;29.48;;;4.38;;
71048;SDS011;58704;53.358;-6.238;2022-11-20T01:33:59;25.30;;;3.35;;
71048;SDS011;58704;53.358;-6.238;2022-11-20T01:36:35;21.73;;;3.53;;
71048;SDS011;58704;53.358;-6.238;2022-11-20T01:39:06;22.70;;;3.40;;
71048;SDS011;58704;53.358;-6.238;2022-11-20T01:41:34;23.67;;;3.92;;
71048;SDS011;58704;53.358;-6.238;2022-11-20T01:44:19;21.85;;;3.70;;
71048;SDS011;58704;53.358;-6.238;2022-11-20T01:46:57;24.98;;;3.38;;
71048;SDS011;58704;53.358;-6.238;2022-11-20T01:49:34;20.90;;;3.40;;
71048;SDS011;58704;53.358;-6.238;2022-11-20T01:52:04;24.63;;;3.72;;
71048;SDS011;58704;53.358;-6.238;2022-11-20T01:55:02;33.30;;;4.05;;
71048;SDS011;58704;53.358;-6.238;2022-11-20T01:57:30;21.20;;;3.53;;
71048;SDS011;58704;53.358;-6.238;2022-11-20T01:59:58;27.35;;;3.47;;
71048;SDS011;58704;53.358;-6.238;2022-11-20T02:02:25;24.43;;;4.10;;
71048;SDS011;58704;53.358;-6.238;2022-11-20T02:04:51;26.10;;;3.70;;
71048;SDS011;58704;53.358;-6.238;2022-11-20T02:07:19;23.17;;;3.13;;
71048;SDS011;58704;53.358;-6.238;2022-11-20T02:09:45;19.80;;;3.60;;
71048;SDS011;58704;53.358;-6.238;2022-11-20T02:12:10;17.93;;;3.70;;
71048;SDS011;58704;53.358;-6.238;2022-11-20T02:14:56;21.58;;;3.10;;
71048;SDS011;58704;53.358;-6.238;2022-11-20T02:17:22;19.92;;;3.22;;
71048;SDS011;58704;53.358;-6.238;2022-11-20T02:19:48;21.73;;;3.35;;
71048;SDS011;58704;53.358;-6.238;2022-11-20T02:22:19;25.00;;;4.10;;
71048;SDS011;58704;53.358;-6.238;2022-11-20T02:24:48;26.27;;;4.00;;
71048;SDS011;58704;53.358;-6.238;2022-11-20T02:27:15;32.50;;;3.97;;
71048;SDS011;58704;53.358;-6.238;2022-11-20T02:32:23;38.72;;;4.75;;
71048;SDS011;58704;53.358;-6.238;2022-11-20T02:34:51;31.83;;;4.63;;
71048;SDS011;58704;53.358;-6.238;2022-11-20T02:37:17;25.13;;;3.97;;
71048;SDS011;58704;53.358;-6.238;2022-11-20T02:39:44;26.73;;;3.60;;
71048;SDS011;58704;53.358;-6.238;2022-11-20T02:42:10;25.83;;;4.65;;
71048;SDS011;58704;53.358;-6.238;2022-11-20T02:44:35;28.37;;;3.57;;
71048;SDS011;58704;53.358;-6.238;2022-11-20T02:47:01;16.23;;;3.85;;
71048;SDS011;58704;53.358;-6.238;2022-11-20T02:49:26;20.67;;;2.93;;
71048;SDS011;58704;53.358;-6.238;2022-11-20T02:51:52;28.90;;;4.17;;
71048;SDS011;58704;53.358;-6.238;2022-11-20T02:54:17;27.23;;;3.92;;
71048;SDS011;58704;53.358;-6.238;2022-11-20T02:56:43;18.50;;;4.53;;
71048;SDS011;58704;53.358;-6.238;2022-11-20T02:59:08;14.40;;;2.80;;
71048;SDS011;58704;53.358;-6.238;2022-11-20T03:01:34;15.93;;;3.03;;
71048;SDS011;58704;53.358;-6.238;2022-11-20T03:03:59;17.00;;;2.73;;
71048;SDS011;58704;53.358;-6.238;2022-11-20T03:06:25;14.73;;;3.40;;
71048;SDS011;58704;53.358;-6.238;2022-11-20T03:08:50;17.67;;;3.43;;
71048;SDS011;58704;53.358;-6.238;2022-11-20T03:11:15;17.48;;;3.70;;
71048;SDS011;58704;53.358;-6.238;2022-11-20T03:13:42;23.83;;;3.33;;
71048;SDS011;58704;53.358;-6.238;2022-11-20T03:16:12;20.10;;;2.72;;
71048;SDS011;58704;53.358;-6.238;2022-11-20T03:18:39;16.15;;;3.03;;
71048;SDS011;58704;53.358;-6.238;2022-11-20T03:21:06;12.97;;;2.70;;
71048;SDS011;58704;53.358;-6.238;2022-11-20T03:23:33;19.50;;;3.80;;
71048;SDS011;58704;53.358;-6.238;2022-11-20T03:26:12;16.50;;;2.65;;
71048;SDS011;58704;53.358;-6.238;2022-11-20T03:28:38;11.98;;;2.47;;
71048;SDS011;58704;53.358;-6.238;2022-11-20T03:31:05;21.37;;;3.17;;
71048;SDS011;58704;53.358;-6.238;2022-11-20T03:33:40;19.23;;;3.28;;
71048;SDS011;58704;53.358;-6.238;2022-11-20T03:36:07;15.07;;;2.75;;
71048;SDS011;58704;53.358;-6.238;2022-11-20T03:38:35;19.75;;;2.80;;
71048;SDS011;58704;53.358;-6.238;2022-11-20T03:41:02;21.73;;;2.97;;
71048;SDS011;58704;53.358;-6.238;2022-11-20T03:43:28;12.05;;;2.40;;
71048;SDS011;58704;53.358;-6.238;2022-11-20T03:45:54;18.30;;;3.05;;
71048;SDS011;58704;53.358;-6.238;2022-11-20T03:48:19;12.47;;;2.27;;
71048;SDS011;58704;53.358;-6.238;2022-11-20T03:50:45;14.30;;;2.43;;
71048;SDS011;58704;53.358;-6.238;2022-11-20T03:53:12;10.38;;;2.55;;
71048;SDS011;58704;53.358;-6.238;2022-11-20T03:55:38;11.63;;;2.58;;
71048;SDS011;58704;53.358;-6.238;2022-11-20T03:58:04;10.43;;;2.47;;
71048;SDS011;58704;53.358;-6.238;2022-11-20T04:00:29;15.43;;;2.27;;
71048;SDS011;58704;53.358;-6.238;2022-11-20T04:02:57;11.57;;;2.30;;
71048;SDS011;58704;53.358;-6.238;2022-11-20T04:05:23;14.98;;;2.20;;
71048;SDS011;58704;53.358;-6.238;2022-11-20T04:07:49;11.80;;;2.30;;
71048;SDS011;58704;53.358;-6.238;2022-11-20T04:10:14;14.88;;;2.20;;
71048;SDS011;58704;53.358;-6.238;2022-11-20T04:12:40;10.60;;;2.20;;
71048;SDS011;58704;53.358;-6.238;2022-11-20T04:15:05;10.33;;;1.80;;
71048;SDS011;58704;53.358;-6.238;2022-11-20T04:17:31;13.68;;;2.35;;
71048;SDS011;58704;53.358;-6.238;2022-11-20T04:19:56;11.47;;;2.63;;
71048;SDS011;58704;53.358;-6.238;2022-11-20T04:22:21;10.10;;;2.07;;
71048;SDS011;58704;53.358;-6.238;2022-11-20T04:24:47;16.63;;;2.10;;
71048;SDS011;58704;53.358;-6.238;2022-11-20T04:27:12;13.20;;;1.90;;
71048;SDS011;58704;53.358;-6.238;2022-11-20T04:29:38;9.65;;;2.28;;
71048;SDS011;58704;53.358;-6.238;2022-11-20T04:32:03;15.57;;;2.57;;
71048;SDS011;58704;53.358;-6.238;2022-11-20T04:34:29;9.97;;;1.90;;
71048;SDS011;58704;53.358;-6.238;2022-11-20T04:36:54;18.37;;;2.53;;
71048;SDS011;58704;53.358;-6.238;2022-11-20T04:39:19;12.25;;;2.15;;
71048;SDS011;58704;53.358;-6.238;2022-11-20T04:41:45;16.30;;;2.40;;
71048;SDS011;58704;53.358;-6.238;2022-11-20T04:44:10;11.27;;;2.37;;
71048;SDS011;58704;53.358;-6.238;2022-11-20T04:46:37;13.73;;;2.03;;
71048;SDS011;58704;53.358;-6.238;2022-11-20T04:49:03;18.05;;;2.13;;
71048;SDS011;58704;53.358;-6.238;2022-11-20T04:51:29;17.47;;;3.03;;
71048;SDS011;58704;53.358;-6.238;2022-11-20T04:53:54;11.38;;;2.33;;
71048;SDS011;58704;53.358;-6.238;2022-11-20T04:56:20;12.50;;;2.50;;
71048;SDS011;58704;53.358;-6.238;2022-11-20T04:58:45;21.53;;;3.33;;
71048;SDS011;58704;53.358;-6.238;2022-11-20T05:01:15;13.93;;;2.43;;
71048;SDS011;58704;53.358;-6.238;2022-11-20T05:03:45;15.80;;;2.30;;
71048;SDS011;58704;53.358;-6.238;2022-11-20T05:06:11;15.90;;;2.50;;
71048;SDS011;58704;53.358;-6.238;2022-11-20T05:08:38;11.60;;;2.72;;
71048;SDS011;58704;53.358;-6.238;2022-11-20T05:11:14;13.40;;;2.73;;
71048;SDS011;58704;53.358;-6.238;2022-11-20T05:13:41;15.73;;;2.70;;
71048;SDS011;58704;53.358;-6.238;2022-11-20T05:16:07;20.73;;;3.20;;
71048;SDS011;58704;53.358;-6.238;2022-11-20T05:18:35;16.80;;;3.03;;
71048;SDS011;58704;53.358;-6.238;2022-11-20T05:21:01;14.67;;;2.07;;
71048;SDS011;58704;53.358;-6.238;2022-11-20T05:23:27;16.58;;;2.50;;
71048;SDS011;58704;53.358;-6.238;2022-11-20T05:25:53;21.23;;;2.80;;
71048;SDS011;58704;53.358;-6.238;2022-11-20T05:28:19;18.45;;;2.95;;
71048;SDS011;58704;53.358;-6.238;2022-11-20T05:30:45;14.68;;;2.00;;
71048;SDS011;58704;53.358;-6.238;2022-11-20T05:33:10;13.23;;;2.33;;
71048;SDS011;58704;53.358;-6.238;2022-11-20T05:35:36;21.90;;;3.70;;
71048;SDS011;58704;53.358;-6.238;2022-11-20T05:38:01;16.50;;;2.67;;
71048;SDS011;58704;53.358;-6.238;2022-11-20T05:40:27;22.08;;;2.95;;
71048;SDS011;58704;53.358;-6.238;2022-11-20T05:42:52;15.00;;;2.90;;
71048;SDS011;58704;53.358;-6.238;2022-11-20T05:45:18;19.87;;;2.90;;
71048;SDS011;58704;53.358;-6.238;2022-11-20T05:47:43;20.73;;;2.60;;
71048;SDS011;58704;53.358;-6.238;2022-11-20T05:50:09;14.43;;;2.10;;
71048;SDS011;58704;53.358;-6.238;2022-11-20T05:52:34;14.00;;;1.90;;
71048;SDS011;58704;53.358;-6.238;2022-11-20T05:54:59;13.15;;;2.65;;
71048;SDS011;58704;53.358;-6.238;2022-11-20T05:57:25;15.57;;;2.27;;
71048;SDS011;58704;53.358;-6.238;2022-11-20T05:59:50;13.97;;;2.77;;
71048;SDS011;58704;53.358;-6.238;2022-11-20T06:02:16;14.57;;;1.90;;
71048;SDS011;58704;53.358;-6.238;2022-11-20T06:04:41;17.47;;;2.70;;
71048;SDS011;58704;53.358;-6.238;2022-11-20T06:07:07;15.50;;;2.78;;
71048;SDS011;58704;53.358;-6.238;2022-11-20T06:09:32;11.23;;;2.03;;
71048;SDS011;58704;53.358;-6.238;2022-11-20T06:11:58;15.40;;;2.20;;
71048;SDS011;58704;53.358;-6.238;2022-11-20T06:14:23;9.20;;;1.63;;
71048;SDS011;58704;53.358;-6.238;2022-11-20T06:16:49;22.90;;;2.20;;
71048;SDS011;58704;53.358;-6.238;2022-11-20T06:19:14;15.70;;;2.43;;
71048;SDS011;58704;53.358;-6.238;2022-11-20T06:21:40;14.53;;;2.20;;
71048;SDS011;58704;53.358;-6.238;2022-11-20T06:24:05;15.07;;;1.90;;
71048;SDS011;58704;53.358;-6.238;2022-11-20T06:26:31;11.43;;;1.83;;
71048;SDS011;58704;53.358;-6.238;2022-11-20T06:28:56;14.33;;;2.10;;
71048;SDS011;58704;53.358;-6.238;2022-11-20T06:31:23;12.70;;;2.13;;
71048;SDS011;58704;53.358;-6.238;2022-11-20T06:33:50;14.75;;;1.85;;
71048;SDS011;58704;53.358;-6.238;2022-11-20T06:36:16;15.32;;;1.85;;
71048;SDS011;58704;53.358;-6.238;2022-11-20T06:38:43;6.78;;;1.70;;
71048;SDS011;58704;53.358;-6.238;2022-11-20T06:41:10;11.97;;;1.70;;
71048;SDS011;58704;53.358;-6.238;2022-11-20T06:43:37;13.57;;;2.08;;
71048;SDS011;58704;53.358;-6.238;2022-11-20T06:46:03;11.23;;;2.87;;
71048;SDS011;58704;53.358;-6.238;2022-11-20T06:48:28;15.25;;;2.65;;
71048;SDS011;58704;53.358;-6.238;2022-11-20T06:50:54;9.57;;;2.07;;
71048;SDS011;58704;53.358;-6.238;2022-11-20T06:53:21;14.77;;;2.28;;
71048;SDS011;58704;53.358;-6.238;2022-11-20T06:55:47;14.07;;;1.92;;
71048;SDS011;58704;53.358;-6.238;2022-11-20T06:58:13;13.75;;;1.75;;
71048;SDS011;58704;53.358;-6.238;2022-11-20T07:00:39;12.13;;;1.90;;
71048;SDS011;58704;53.358;-6.238;2022-11-20T07:03:05;11.80;;;2.40;;
71048;SDS011;58704;53.358;-6.238;2022-11-20T07:05:31;16.85;;;2.67;;
71048;SDS011;58704;53.358;-6.238;2022-11-20T07:07:57;10.93;;;1.50;;
71048;SDS011;58704;53.358;-6.238;2022-11-20T07:10:23;11.57;;;1.95;;
71048;SDS011;58704;53.358;-6.238;2022-11-20T07:12:49;11.60;;;1.92;;
71048;SDS011;58704;53.358;-6.238;2022-11-20T07:15:15;8.40;;;2.07;;
71048;SDS011;58704;53.358;-6.238;2022-11-20T07:17:41;12.40;;;1.80;;
71048;SDS011;58704;53.358;-6.238;2022-11-20T07:20:07;16.10;;;2.30;;
71048;SDS011;58704;53.358;-6.238;2022-11-20T07:22:32;13.45;;;2.72;;
71048;SDS011;58704;53.358;-6.238;2022-11-20T07:24:58;14.03;;;2.33;;
71048;SDS011;58704;53.358;-6.238;2022-11-20T07:27:23;12.03;;;1.73;;
71048;SDS011;58704;53.358;-6.238;2022-11-20T07:29:48;17.10;;;2.43;;
71048;SDS011;58704;53.358;-6.238;2022-11-20T07:32:14;10.88;;;2.13;;
71048;SDS011;58704;53.358;-6.238;2022-11-20T07:34:39;14.17;;;2.80;;
71048;SDS011;58704;53.358;-6.238;2022-11-20T07:37:05;12.30;;;2.07;;
71048;SDS011;58704;53.358;-6.238;2022-11-20T07:39:30;20.40;;;2.40;;
71048;SDS011;58704;53.358;-6.238;2022-11-20T07:41:55;18.63;;;2.90;;
71048;SDS011;58704;53.358;-6.238;2022-11-20T07:44:21;17.75;;;2.33;;
71048;SDS011;58704;53.358;-6.238;2022-11-20T07:46:46;12.63;;;2.07;;
71048;SDS011;58704;53.358;-6.238;2022-11-20T07:49:12;19.47;;;2.63;;
71048;SDS011;58704;53.358;-6.238;2022-11-20T07:51:37;13.00;;;2.60;;
71048;SDS011;58704;53.358;-6.238;2022-11-20T07:54:02;15.47;;;2.43;;
71048;SDS011;58704;53.358;-6.238;2022-11-20T07:56:28;12.00;;;2.55;;
71048;SDS011;58704;53.358;-6.238;2022-11-20T07:58:53;16.50;;;2.77;;
71048;SDS011;58704;53.358;-6.238;2022-11-20T08:01:19;17.20;;;2.33;;
71048;SDS011;58704;53.358;-6.238;2022-11-20T08:03:44;12.35;;;2.00;;
71048;SDS011;58704;53.358;-6.238;2022-11-20T08:06:10;18.80;;;2.23;;
71048;SDS011;58704;53.358;-6.238;2022-11-20T08:08:35;14.00;;;2.27;;
71048;SDS011;58704;53.358;-6.238;2022-11-20T08:11:01;24.03;;;3.03;;
71048;SDS011;58704;53.358;-6.238;2022-11-20T08:13:45;16.65;;;2.85;;
71048;SDS011;58704;53.358;-6.238;2022-11-20T08:16:30;14.00;;;2.35;;
71048;SDS011;58704;53.358;-6.238;2022-11-20T08:18:55;11.47;;;2.33;;
71048;SDS011;58704;53.358;-6.238;2022-11-20T08:21:21;20.80;;;2.65;;
71048;SDS011;58704;53.358;-6.238;2022-11-20T08:23:46;22.43;;;2.57;;
71048;SDS011;58704;53.358;-6.238;2022-11-20T08:26:12;22.80;;;3.23;;
71048;SDS011;58704;53.358;-6.238;2022-11-20T08:28:37;20.07;;;2.70;;
71048;SDS011;58704;53.358;-6.238;2022-11-20T08:31:03;21.42;;;2.92;;
71048;SDS011;58704;53.358;-6.238;2022-11-20T08:33:29;18.13;;;3.70;;
71048;SDS011;58704;53.358;-6.238;2022-11-20T08:36:01;12.48;;;2.15;;
71048;SDS011;58704;53.358;-6.238;2022-11-20T08:38:28;17.10;;;2.70;;
71048;SDS011;58704;53.358;-6.238;2022-11-20T08:41:01;15.60;;;2.72;;
71048;SDS011;58704;53.358;-6.238;2022-11-20T08:43:46;14.93;;;3.53;;
71048;SDS011;58704;53.358;-6.238;2022-11-20T08:46:11;16.27;;;2.63;;
71048;SDS011;58704;53.358;-6.238;2022-11-20T08:48:37;17.53;;;2.80;;
71048;SDS011;58704;53.358;-6.238;2022-11-20T08:51:02;17.77;;;3.23;;
71048;SDS011;58704;53.358;-6.238;2022-11-20T08:53:28;15.33;;;2.57;;
71048;SDS011;58704;53.358;-6.238;2022-11-20T08:55:53;15.27;;;2.77;;
71048;SDS011;58704;53.358;-6.238;2022-11-20T08:58:19;13.63;;;2.25;;
71048;SDS011;58704;53.358;-6.238;2022-11-20T09:00:44;12.63;;;2.67;;
71048;SDS011;58704;53.358;-6.238;2022-11-20T09:03:10;11.45;;;1.77;;
71048;SDS011;58704;53.358;-6.238;2022-11-20T09:05:38;16.10;;;2.17;;
71048;SDS011;58704;53.358;-6.238;2022-11-20T09:08:03;13.40;;;2.25;;
71048;SDS011;58704;53.358;-6.238;2022-11-20T09:10:29;14.57;;;2.60;;
71048;SDS011;58704;53.358;-6.238;2022-11-20T09:12:54;11.50;;;3.00;;
71048;SDS011;58704;53.358;-6.238;2022-11-20T09:15:20;15.15;;;2.92;;
71048;SDS011;58704;53.358;-6.238;2022-11-20T09:17:50;11.32;;;1.65;;
71048;SDS011;58704;53.358;-6.238;2022-11-20T09:20:25;9.73;;;1.88;;
71048;SDS011;58704;53.358;-6.238;2022-11-20T09:22:51;7.63;;;1.83;;
71048;SDS011;58704;53.358;-6.238;2022-11-20T09:25:16;9.70;;;1.93;;
71048;SDS011;58704;53.358;-6.238;2022-11-20T09:27:42;8.57;;;1.50;;
71048;SDS011;58704;53.358;-6.238;2022-11-20T09:30:11;7.85;;;1.67;;
71048;SDS011;58704;53.358;-6.238;2022-11-20T09:32:38;9.73;;;1.60;;
71048;SDS011;58704;53.358;-6.238;2022-11-20T09:35:05;11.50;;;1.92;;
71048;SDS011;58704;53.358;-6.238;2022-11-20T09:37:31;10.47;;;2.23;;
71048;SDS011;58704;53.358;-6.238;2022-11-20T09:39:56;14.70;;;1.90;;
71048;SDS011;58704;53.358;-6.238;2022-11-20T09:48:21;11.43;;;2.00;;
71048;SDS011;58704;53.358;-6.238;2022-11-20T09:56:16;11.63;;;2.50;;
71048;SDS011;58704;53.358;-6.238;2022-11-20T09:58:42;8.77;;;1.50;;
71048;SDS011;58704;53.358;-6.238;2022-11-20T10:01:12;3.65;;;1.00;;
71048;SDS011;58704;53.358;-6.238;2022-11-20T10:03:53;10.18;;;1.80;;
71048;SDS011;58704;53.358;-6.238;2022-11-20T10:06:24;7.57;;;1.63;;
71048;SDS011;58704;53.358;-6.238;2022-11-20T10:25:03;6.93;;;1.40;;
71048;SDS011;58704;53.358;-6.238;2022-11-20T10:30:14;4.88;;;1.40;;
71048;SDS011;58704;53.358;-6.238;2022-11-20T10:32:54;3.22;;;0.98;;
71048;SDS011;58704;53.358;-6.238;2022-11-20T10:35:25;12.48;;;1.30;;
71048;SDS011;58704;53.358;-6.238;2022-11-20T10:37:55;6.53;;;1.10;;
71048;SDS011;58704;53.358;-6.238;2022-11-20T10:40:28;3.33;;;1.15;;
71048;SDS011;58704;53.358;-6.238;2022-11-20T10:48:18;6.28;;;2.25;;
71048;SDS011;58704;53.358;-6.238;2022-11-20T10:50:57;4.53;;;1.30;;
71048;SDS011;58704;53.358;-6.238;2022-11-20T10:56:22;2.22;;;1.05;;
71048;SDS011;58704;53.358;-6.238;2022-11-20T11:01:41;5.13;;;1.45;;
71048;SDS011;58704;53.358;-6.238;2022-11-20T11:04:14;5.90;;;0.97;;
71048;SDS011;58704;53.358;-6.238;2022-11-20T11:06:48;4.15;;;1.00;;
71048;SDS011;58704;53.358;-6.238;2022-11-20T11:09:20;4.65;;;1.20;;
71048;SDS011;58704;53.358;-6.238;2022-11-20T11:11:53;2.78;;;1.10;;
71048;SDS011;58704;53.358;-6.238;2022-11-20T11:14:18;6.00;;;2.00;;
71048;SDS011;58704;53.358;-6.238;2022-11-20T11:16:51;9.20;;;1.20;;
71048;SDS011;58704;53.358;-6.238;2022-11-20T11:19:18;5.32;;;1.58;;
71048;SDS011;58704;53.358;-6.238;2022-11-20T11:21:46;2.97;;;0.97;;
71048;SDS011;58704;53.358;-6.238;2022-11-20T11:24:19;1.60;;;0.85;;
71048;SDS011;58704;53.358;-6.238;2022-11-20T11:29:22;2.97;;;1.20;;
71048;SDS011;58704;53.358;-6.238;2022-11-20T11:31:47;1.53;;;1.00;;
71048;SDS011;58704;53.358;-6.238;2022-11-20T11:34:14;2.10;;;1.07;;
71048;SDS011;58704;53.358;-6.238;2022-11-20T11:36:40;0.90;;;0.70;;
71048;SDS011;58704;53.358;-6.238;2022-11-20T11:39:09;1.37;;;0.80;;
71048;SDS011;58704;53.358;-6.238;2022-11-20T11:41:36;2.35;;;0.90;;
71048;SDS011;58704;53.358;-6.238;2022-11-20T11:47:08;1.30;;;1.20;;
71048;SDS011;58704;53.358;-6.238;2022-11-20T11:49:36;1.77;;;1.00;;
71048;SDS011;58704;53.358;-6.238;2022-11-20T11:54:41;1.13;;;0.70;;
71048;SDS011;58704;53.358;-6.238;2022-11-20T11:57:16;1.33;;;0.98;;
71048;SDS011;58704;53.358;-6.238;2022-11-20T12:02:38;2.55;;;1.30;;
71048;SDS011;58704;53.358;-6.238;2022-11-20T12:05:16;5.00;;;0.90;;
71048;SDS011;58704;53.358;-6.238;2022-11-20T12:12:54;2.45;;;1.38;;
71048;SDS011;58704;53.358;-6.238;2022-11-20T12:15:28;2.92;;;1.20;;
71048;SDS011;58704;53.358;-6.238;2022-11-20T12:17:55;1.40;;;1.13;;
71048;SDS011;58704;53.358;-6.238;2022-11-20T12:20:21;2.28;;;1.20;;
71048;SDS011;58704;53.358;-6.238;2022-11-20T12:23:02;3.13;;;1.10;;
71048;SDS011;58704;53.358;-6.238;2022-11-20T12:25:36;1.37;;;1.10;;
71048;SDS011;58704;53.358;-6.238;2022-11-20T12:38:58;2.30;;;1.00;;
71048;SDS011;58704;53.358;-6.238;2022-11-20T13:01:24;4.63;;;1.42;;
71048;SDS011;58704;53.358;-6.238;2022-11-20T13:06:46;3.20;;;1.40;;
71048;SDS011;58704;53.358;-6.238;2022-11-20T13:09:12;3.28;;;1.20;;
71048;SDS011;58704;53.358;-6.238;2022-11-20T13:14:31;5.15;;;1.27;;
71048;SDS011;58704;53.358;-6.238;2022-11-20T13:17:14;2.83;;;1.20;;
71048;SDS011;58704;53.358;-6.238;2022-11-20T13:20:03;4.05;;;1.33;;
71048;SDS011;58704;53.358;-6.238;2022-11-20T13:25:10;4.50;;;2.03;;
71048;SDS011;58704;53.358;-6.238;2022-11-20T13:27:57;8.75;;;1.67;;
71048;SDS011;58704;53.358;-6.238;2022-11-20T13:30:27;5.33;;;1.30;;
71048;SDS011;58704;53.358;-6.238;2022-11-20T13:32:54;6.43;;;2.13;;
71048;SDS011;58704;53.358;-6.238;2022-11-20T13:35:25;4.22;;;1.90;;
71048;SDS011;58704;53.358;-6.238;2022-11-20T13:40:31;7.35;;;1.95;;
71048;SDS011;58704;53.358;-6.238;2022-11-20T13:45:57;7.68;;;1.73;;
71048;SDS011;58704;53.358;-6.238;2022-11-20T13:48:26;5.07;;;2.10;;
71048;SDS011;58704;53.358;-6.238;2022-11-20T13:53:33;6.13;;;1.83;;
71048;SDS011;58704;53.358;-6.238;2022-11-20T13:56:23;5.33;;;1.43;;
71048;SDS011;58704;53.358;-6.238;2022-11-20T13:59:11;7.78;;;1.50;;
71048;SDS011;58704;53.358;-6.238;2022-11-20T14:01:48;5.03;;;1.70;;
71048;SDS011;58704;53.358;-6.238;2022-11-20T14:04:15;8.53;;;1.73;;
71048;SDS011;58704;53.358;-6.238;2022-11-20T14:06:44;4.43;;;1.90;;
71048;SDS011;58704;53.358;-6.238;2022-11-20T14:09:32;4.93;;;2.17;;
71048;SDS011;58704;53.358;-6.238;2022-11-20T14:11:57;5.63;;;1.60;;
71048;SDS011;58704;53.358;-6.238;2022-11-20T14:14:24;3.60;;;1.57;;
71048;SDS011;58704;53.358;-6.238;2022-11-20T14:17:04;6.65;;;3.03;;
71048;SDS011;58704;53.358;-6.238;2022-11-20T14:19:51;8.70;;;3.10;;
71048;SDS011;58704;53.358;-6.238;2022-11-20T14:22:19;4.63;;;1.50;;
71048;SDS011;58704;53.358;-6.238;2022-11-20T14:24:46;4.03;;;1.58;;
71048;SDS011;58704;53.358;-6.238;2022-11-20T14:27:14;5.33;;;1.50;;
71048;SDS011;58704;53.358;-6.238;2022-11-20T14:29:41;6.70;;;1.70;;
71048;SDS011;58704;53.358;-6.238;2022-11-20T14:32:08;5.75;;;1.80;;
71048;SDS011;58704;53.358;-6.238;2022-11-20T14:34:37;4.43;;;1.55;;
71048;SDS011;58704;53.358;-6.238;2022-11-20T14:37:06;7.87;;;2.00;;
71048;SDS011;58704;53.358;-6.238;2022-11-20T14:39:37;6.70;;;1.80;;
71048;SDS011;58704;53.358;-6.238;2022-11-20T14:42:15;8.07;;;1.98;;
71048;SDS011;58704;53.358;-6.238;2022-11-20T14:44:42;7.18;;;2.00;;
71048;SDS011;58704;53.358;-6.238;2022-11-20T14:47:10;5.72;;;1.75;;
71048;SDS011;58704;53.358;-6.238;2022-11-20T14:49:37;6.50;;;2.13;;
71048;SDS011;58704;53.358;-6.238;2022-11-20T14:52:10;9.65;;;2.55;;
71048;SDS011;58704;53.358;-6.238;2022-11-20T14:54:43;4.78;;;1.73;;
71048;SDS011;58704;53.358;-6.238;2022-11-20T14:57:45;4.25;;;1.70;;
71048;SDS011;58704;53.358;-6.238;2022-11-20T15:00:18;6.40;;;1.40;;
71048;SDS011;58704;53.358;-6.238;2022-11-20T15:02:45;6.55;;;1.80;;
71048;SDS011;58704;53.358;-6.238;2022-11-20T15:05:12;8.93;;;2.10;;
71048;SDS011;58704;53.358;-6.238;2022-11-20T15:07:40;5.95;;;1.90;;
71048;SDS011;58704;53.358;-6.238;2022-11-20T15:12:38;7.93;;;2.00;;
71048;SDS011;58704;53.358;-6.238;2022-11-20T15:17:58;5.20;;;1.80;;
71048;SDS011;58704;53.358;-6.238;2022-11-20T15:20:27;4.43;;;2.10;;
71048;SDS011;58704;53.358;-6.238;2022-11-20T15:22:54;8.10;;;1.70;;
71048;SDS011;58704;53.358;-6.238;2022-11-20T15:25:19;17.13;;;2.43;;
71048;SDS011;58704;53.358;-6.238;2022-11-20T15:27:45;10.03;;;2.33;;
71048;SDS011;58704;53.358;-6.238;2022-11-20T15:30:14;7.30;;;1.80;;
71048;SDS011;58704;53.358;-6.238;2022-11-20T15:32:42;6.17;;;2.03;;
71048;SDS011;58704;53.358;-6.238;2022-11-20T15:35:08;6.95;;;2.70;;
71048;SDS011;58704;53.358;-6.238;2022-11-20T15:37:34;5.22;;;1.45;;
71048;SDS011;58704;53.358;-6.238;2022-11-20T15:40:00;10.75;;;3.10;;
71048;SDS011;58704;53.358;-6.238;2022-11-20T15:42:25;5.23;;;1.93;;
71048;SDS011;58704;53.358;-6.238;2022-11-20T15:44:51;6.70;;;2.07;;
71048;SDS011;58704;53.358;-6.238;2022-11-20T15:47:16;7.33;;;1.70;;
71048;SDS011;58704;53.358;-6.238;2022-11-20T15:49:50;4.93;;;1.65;;
71048;SDS011;58704;53.358;-6.238;2022-11-20T15:52:15;4.87;;;2.10;;
71048;SDS011;58704;53.358;-6.238;2022-11-20T15:54:41;3.08;;;1.70;;
71048;SDS011;58704;53.358;-6.238;2022-11-20T15:57:06;4.30;;;1.80;;
71048;SDS011;58704;53.358;-6.238;2022-11-20T15:59:32;6.57;;;1.80;;
71048;SDS011;58704;53.358;-6.238;2022-11-20T16:01:57;5.55;;;2.15;;
71048;SDS011;58704;53.358;-6.238;2022-11-20T16:04:23;4.37;;;1.90;;
71048;SDS011;58704;53.358;-6.238;2022-11-20T16:06:48;4.67;;;1.93;;
71048;SDS011;58704;53.358;-6.238;2022-11-20T16:09:13;4.60;;;1.80;;
71048;SDS011;58704;53.358;-6.238;2022-11-20T16:11:39;3.07;;;1.73;;
71048;SDS011;58704;53.358;-6.238;2022-11-20T16:14:04;5.93;;;2.70;;
71048;SDS011;58704;53.358;-6.238;2022-11-20T16:16:49;4.83;;;1.97;;
71048;SDS011;58704;53.358;-6.238;2022-11-20T16:19:15;5.80;;;1.77;;
71048;SDS011;58704;53.358;-6.238;2022-11-20T16:21:41;6.45;;;1.80;;
71048;SDS011;58704;53.358;-6.238;2022-11-20T16:24:07;6.45;;;2.60;;